Time;durP1;ratioP1;P1;durP2;ratioP2;P2;SDS_P1;SDS_P2;PMS_P1;PMS_P2;Temp;Humidity;BMP_temperature;BMP_pressure;BME280_temperature;BME280_humidity;BME280_pressure;Samples;Min_cycle;Max_cycle;Signal;HPM_P1;HPM_P2
2023/06/13 00:01:48;;;;;;;9.77;3.90;;;20.90;73.30;;;;;;5074783;28;20255;-83
2023/06/13 00:04:21;;;;;;;9.88;4.15;;;20.90;73.80;;;;;;5091915;28;20177;-81
2023/06/13 00:06:53;;;;;;;8.40;4.03;;;20.90;74.20;;;;;;5108922;28;20177;-81
2023/06/13 00:09:19;;;;;;;9.25;4.35;;;20.80;74.70;;;;;;5113386;28;20293;-81
2023/06/13 00:11:46;;;;;;;5.43;4.20;;;20.80;75.00;;;;;;5095930;28;20188;-81
2023/06/13 00:14:15;;;;;;;5.38;4.20;;;20.70;75.10;;;;;;5074950;28;20185;-82
2023/06/13 00:16:47;;;;;;;8.18;4.53;;;20.70;75.50;;;;;;5092776;28;20251;-81
2023/06/13 00:19:14;;;;;;;8.93;4.40;;;20.60;75.80;;;;;;5093640;28;20256;-81
2023/06/13 00:21:41;;;;;;;6.22;4.63;;;20.60;76.00;;;;;;5092089;28;20177;-81
2023/06/13 00:24:07;;;;;;;15.75;4.97;;;20.50;76.20;;;;;;5091780;28;20188;-81
2023/06/13 00:26:33;;;;;;;12.07;5.30;;;20.50;76.50;;;;;;5092214;28;20190;-81
2023/06/13 00:28:59;;;;;;;8.02;4.35;;;20.40;76.70;;;;;;5091713;28;20578;-81
2023/06/13 00:31:29;;;;;;;17.67;4.70;;;20.40;77.00;;;;;;5091219;28;20186;-81
2023/06/13 00:33:59;;;;;;;8.80;4.80;;;20.30;77.20;;;;;;5081005;28;20234;-81
2023/06/13 00:36:27;;;;;;;9.60;5.05;;;20.30;77.40;;;;;;5100353;28;20626;-81
2023/06/13 00:38:55;;;;;;;8.45;5.22;;;20.20;77.50;;;;;;5100240;28;20182;-81
2023/06/13 00:41:23;;;;;;;10.30;5.47;;;20.20;77.80;;;;;;5082728;28;20204;-81
2023/06/13 00:43:50;;;;;;;11.98;5.50;;;20.20;78.10;;;;;;5091035;28;20272;-82
2023/06/13 00:46:28;;;;;;;6.65;5.00;;;20.20;78.20;;;;;;5091041;28;20269;-81
2023/06/13 00:48:57;;;;;;;10.90;5.45;;;20.10;78.20;;;;;;5092356;28;20189;-82
2023/06/13 00:51:27;;;;;;;12.27;5.30;;;20.10;78.50;;;;;;5102411;28;20191;-82
2023/06/13 00:53:55;;;;;;;9.85;5.28;;;20.10;78.70;;;;;;5112471;28;20664;-81
2023/06/13 00:56:23;;;;;;;13.10;5.60;;;20.10;78.90;;;;;;5090728;28;20551;-81
2023/06/13 00:58:50;;;;;;;10.55;5.65;;;20.00;79.00;;;;;;5091636;28;20343;-81
2023/06/13 01:01:22;;;;;;;11.07;6.03;;;20.00;79.20;;;;;;5110397;28;20272;-81
2023/06/13 01:03:50;;;;;;;12.98;5.90;;;20.00;79.30;;;;;;5094439;28;20266;-80
2023/06/13 01:06:16;;;;;;;8.43;5.50;;;19.90;79.20;;;;;;5110432;28;20268;-80
2023/06/13 01:08:44;;;;;;;9.02;5.80;;;19.90;79.30;;;;;;5094003;28;20661;-81
2023/06/13 01:11:25;;;;;;;9.07;5.80;;;19.90;79.30;;;;;;5080031;28;20513;-81
2023/06/13 01:14:02;;;;;;;11.48;5.75;;;19.80;79.20;;;;;;5083390;28;20177;-81
2023/06/13 01:17:03;;;;;;;19.00;5.65;;;19.80;79.30;;;;;;5100335;28;20624;-81
2023/06/13 01:19:34;;;;;;;12.02;5.78;;;19.80;79.40;;;;;;5103047;28;20189;-81
2023/06/13 01:22:02;;;;;;;9.65;5.20;;;19.70;79.80;;;;;;5086862;28;20174;-80
2023/06/13 01:25:08;;;;;;;8.98;5.97;;;19.60;79.90;;;;;;5099242;28;20182;-80
2023/06/13 01:27:36;;;;;;;7.90;5.72;;;19.60;80.10;;;;;;5060984;28;20551;-80
2023/06/13 01:30:04;;;;;;;9.50;5.72;;;19.60;80.30;;;;;;5108569;28;20248;-85
2023/06/13 01:32:32;;;;;;;8.82;5.80;;;19.50;80.40;;;;;;5108328;28;20229;-81
2023/06/13 01:35:01;;;;;;;7.82;5.65;;;19.50;80.60;;;;;;5112084;28;20641;-81
2023/06/13 01:37:27;;;;;;;13.98;6.15;;;19.40;80.90;;;;;;5095123;28;20201;-81
2023/06/13 01:39:53;;;;;;;10.40;6.20;;;19.40;81.10;;;;;;5112286;28;20193;-81
2023/06/13 01:42:18;;;;;;;9.50;5.85;;;19.40;81.10;;;;;;5092349;28;20288;-80
2023/06/13 01:44:44;;;;;;;11.75;6.00;;;19.40;81.30;;;;;;5090447;28;20220;-80
2023/06/13 01:47:21;;;;;;;11.90;6.20;;;19.30;81.30;;;;;;5094231;28;20198;-80
2023/06/13 01:50:12;;;;;;;11.18;6.15;;;19.30;81.20;;;;;;5096031;28;20189;-81
2023/06/13 01:53:07;;;;;;;7.97;6.20;;;19.30;81.40;;;;;;5099445;28;20268;-80
2023/06/13 01:55:47;;;;;;;12.93;6.68;;;19.20;81.40;;;;;;5110270;28;20165;-80
2023/06/13 01:58:24;;;;;;;15.65;7.03;;;19.20;81.50;;;;;;5077450;28;20173;-80
2023/06/13 02:00:55;;;;;;;12.90;6.53;;;19.10;81.70;;;;;;5108526;27;20165;-80
2023/06/13 02:03:22;;;;;;;12.60;6.75;;;19.10;81.90;;;;;;5136270;27;20653;-80
2023/06/13 02:05:48;;;;;;;10.43;6.97;;;19.10;82.10;;;;;;5129294;27;20213;-80
2023/06/13 02:08:16;;;;;;;16.73;7.57;;;19.10;82.40;;;;;;5080546;28;20260;-80
2023/06/13 02:10:42;;;;;;;12.38;6.93;;;19.10;82.70;;;;;;5109503;28;20259;-80
2023/06/13 02:13:07;;;;;;;11.07;6.75;;;19.00;83.10;;;;;;5077109;28;20209;-80
2023/06/13 02:15:33;;;;;;;11.65;6.20;;;19.00;83.60;;;;;;5078947;28;20213;-81
2023/06/13 02:17:59;;;;;;;8.27;6.55;;;19.00;83.80;;;;;;5095791;28;20190;-80
2023/06/13 02:20:25;;;;;;;14.93;5.68;;;18.90;84.20;;;;;;5111661;28;20188;-81
2023/06/13 02:22:50;;;;;;;9.88;5.53;;;18.90;84.50;;;;;;5077569;28;20186;-81
2023/06/13 02:25:17;;;;;;;13.43;5.50;;;18.80;84.50;;;;;;5078976;27;20207;-81
2023/06/13 02:27:45;;;;;;;12.38;5.25;;;18.80;84.70;;;;;;5115590;28;20253;-81
2023/06/13 02:30:11;;;;;;;9.93;5.30;;;18.80;84.70;;;;;;5114094;28;20208;-81
2023/06/13 02:32:39;;;;;;;14.40;5.55;;;18.80;84.80;;;;;;5102921;27;20231;-81
2023/06/13 02:35:09;;;;;;;10.77;5.28;;;18.70;84.90;;;;;;5111781;28;20226;-82
2023/06/13 02:37:35;;;;;;;6.93;5.55;;;18.70;85.00;;;;;;5078718;28;20235;-81
2023/06/13 02:40:04;;;;;;;10.45;5.60;;;18.60;85.20;;;;;;5096570;28;20376;-81
2023/06/13 02:42:30;;;;;;;13.20;5.38;;;18.60;85.30;;;;;;5096222;28;20633;-81
2023/06/13 02:44:58;;;;;;;8.70;5.38;;;18.50;85.50;;;;;;5096309;28;20182;-80
2023/06/13 02:47:23;;;;;;;7.32;5.07;;;18.50;85.60;;;;;;5077600;28;20174;-81
2023/06/13 02:49:49;;;;;;;10.48;5.47;;;18.50;85.80;;;;;;5094887;28;20548;-80
2023/06/13 02:52:16;;;;;;;8.88;5.43;;;18.40;85.90;;;;;;5096573;28;20192;-80
2023/06/13 02:54:42;;;;;;;8.90;5.50;;;18.40;86.00;;;;;;5096595;28;20186;-82
2023/06/13 02:57:11;;;;;;;11.30;5.28;;;18.40;86.10;;;;;;5078955;28;20178;-80
2023/06/13 02:59:37;;;;;;;9.30;4.97;;;18.40;86.20;;;;;;5079230;28;20193;-80
2023/06/13 03:02:03;;;;;;;12.02;5.40;;;18.30;86.20;;;;;;5078285;28;20215;-81
2023/06/13 03:04:29;;;;;;;14.85;4.90;;;18.30;86.30;;;;;;5082590;28;20188;-80
2023/06/13 03:06:56;;;;;;;8.57;5.32;;;18.30;86.40;;;;;;5079624;28;20190;-80
2023/06/13 03:09:23;;;;;;;8.50;5.10;;;18.20;87.20;;;;;;5062909;28;20267;-80
2023/06/13 03:11:49;;;;;;;12.18;5.38;;;18.20;86.50;;;;;;5094860;28;20269;-82
2023/06/13 03:14:17;;;;;;;12.20;5.65;;;18.20;86.60;;;;;;5095872;28;20189;-81
2023/06/13 03:16:43;;;;;;;9.85;5.35;;;18.10;86.80;;;;;;5088578;28;20268;-82
2023/06/13 03:19:09;;;;;;;11.18;5.47;;;18.10;87.10;;;;;;5112369;28;20611;-81
2023/06/13 03:21:35;;;;;;;7.47;5.22;;;18.10;87.20;;;;;;5108146;28;20185;-81
2023/06/13 03:24:01;;;;;;;8.32;5.32;;;18.10;87.40;;;;;;5077399;28;20268;-82
2023/06/13 03:26:38;;;;;;;10.23;5.32;;;18.10;87.40;;;;;;5100400;28;20178;-82
2023/06/13 03:29:07;;;;;;;14.80;5.32;;;18.10;87.50;;;;;;5066319;28;20305;-81
2023/06/13 03:31:33;;;;;;;9.95;5.57;;;18.00;87.50;;;;;;5112246;28;20185;-82
2023/06/13 03:33:59;;;;;;;8.85;5.68;;;18.00;87.50;;;;;;5114506;28;20177;-82
2023/06/13 03:36:26;;;;;;;8.82;5.22;;;18.00;87.30;;;;;;5103386;28;20190;-82
2023/06/13 03:38:53;;;;;;;9.88;5.40;;;18.00;87.20;;;;;;5075274;28;20812;-81
2023/06/13 03:41:19;;;;;;;9.02;5.15;;;18.00;87.10;;;;;;5099137;28;20182;-80
2023/06/13 03:43:45;;;;;;;8.30;5.15;;;18.00;87.20;;;;;;5093653;28;20657;-81
2023/06/13 03:46:11;;;;;;;8.63;4.95;;;18.00;87.10;;;;;;5093062;27;20258;-80
2023/06/13 03:48:37;;;;;;;10.27;5.72;;;17.90;86.90;;;;;;5094541;28;20196;-81
2023/06/13 03:51:03;;;;;;;9.52;4.90;;;17.90;87.00;;;;;;5061114;28;20173;-81
2023/06/13 03:53:29;;;;;;;8.38;5.78;;;17.90;86.80;;;;;;5096055;28;20181;-82
2023/06/13 03:55:54;;;;;;;8.77;5.30;;;17.90;86.50;;;;;;5095844;28;20249;-80
2023/06/13 03:58:22;;;;;;;11.98;5.25;;;18.00;86.50;;;;;;5095855;28;20181;-81
2023/06/13 04:00:49;;;;;;;6.65;4.95;;;18.00;86.40;;;;;;5096686;28;20177;-81
2023/06/13 04:03:14;;;;;;;8.95;5.63;;;17.90;86.20;;;;;;5093207;28;20185;-81
2023/06/13 04:05:40;;;;;;;9.32;5.43;;;17.90;86.00;;;;;;5077687;28;20182;-81
2023/06/13 04:08:07;;;;;;;7.18;5.13;;;17.90;85.80;;;;;;5094951;28;20281;-81
2023/06/13 04:10:33;;;;;;;10.82;5.15;;;17.90;85.60;;;;;;5107032;27;20220;-83
2023/06/13 04:13:00;;;;;;;11.75;5.55;;;17.80;85.40;;;;;;5093613;28;20247;-82
2023/06/13 04:15:25;;;;;;;8.00;5.35;;;17.80;85.00;;;;;;5076231;28;20174;-83
2023/06/13 04:17:54;;;;;;;8.63;5.63;;;17.80;84.60;;;;;;5077788;28;20177;-82
2023/06/13 04:20:21;;;;;;;9.52;5.40;;;17.80;84.10;;;;;;5110274;28;20234;-81
2023/06/13 04:22:48;;;;;;;9.70;5.47;;;17.90;83.60;;;;;;5094616;28;20223;-81
2023/06/13 04:25:15;;;;;;;10.13;5.40;;;17.90;82.80;;;;;;5091196;28;20182;-86
2023/06/13 04:27:43;;;;;;;8.63;5.35;;;17.90;82.50;;;;;;5091934;28;20197;-80
2023/06/13 04:30:11;;;;;;;8.38;5.35;;;17.90;82.10;;;;;;5058880;28;20307;-82
2023/06/13 04:32:37;;;;;;;10.77;5.93;;;17.90;81.80;;;;;;5110802;28;20358;-82
2023/06/13 04:35:04;;;;;;;9.35;5.40;;;17.90;81.80;;;;;;5114076;28;20181;-82
2023/06/13 04:37:30;;;;;;;12.35;5.45;;;17.90;81.60;;;;;;5089757;28;20285;-83
2023/06/13 04:39:56;;;;;;;10.13;5.70;;;17.90;81.70;;;;;;5100165;28;20192;-83
2023/06/13 04:42:29;;;;;;;11.82;5.65;;;17.80;81.50;;;;;;5090900;28;20178;-82
2023/06/13 04:44:56;;;;;;;9.65;5.88;;;17.80;81.60;;;;;;5092029;28;20170;-82
2023/06/13 04:47:27;;;;;;;11.45;5.57;;;17.90;81.40;;;;;;5091430;28;20201;-83
2023/06/13 04:50:02;;;;;;;8.90;4.95;;;17.90;81.30;;;;;;5106042;28;20205;-83
2023/06/13 04:52:32;;;;;;;11.85;5.75;;;17.90;81.20;;;;;;5092311;28;20185;-82
2023/06/13 04:55:05;;;;;;;11.30;6.03;;;17.90;80.90;;;;;;5091038;28;20205;-85
2023/06/13 04:57:31;;;;;;;10.48;5.93;;;17.90;80.80;;;;;;5098637;28;20636;-83
2023/06/13 04:59:58;;;;;;;10.68;5.60;;;17.90;80.70;;;;;;5090878;28;20206;-81
2023/06/13 05:02:25;;;;;;;9.90;5.22;;;17.90;80.70;;;;;;5089606;28;20186;-83
2023/06/13 05:04:52;;;;;;;8.95;5.43;;;17.90;80.50;;;;;;5092455;28;20177;-82
2023/06/13 05:07:19;;;;;;;15.65;5.00;;;17.90;80.30;;;;;;5123391;27;20181;-82
2023/06/13 05:09:45;;;;;;;12.50;5.03;;;18.00;80.30;;;;;;5131698;27;20231;-81
2023/06/13 05:12:12;;;;;;;12.55;5.07;;;18.00;80.00;;;;;;5104447;28;20192;-82
2023/06/13 05:14:40;;;;;;;8.93;4.90;;;18.00;79.70;;;;;;5092458;28;20178;-82
2023/06/13 05:17:09;;;;;;;7.38;4.68;;;18.10;79.30;;;;;;5088988;28;20242;-83
2023/06/13 05:19:37;;;;;;;10.95;5.28;;;18.10;78.80;;;;;;5094198;28;20208;-82
2023/06/13 05:22:05;;;;;;;5.70;4.07;;;18.10;78.30;;;;;;5097813;28;20209;-82
2023/06/13 05:24:32;;;;;;;10.02;4.47;;;18.20;78.20;;;;;;5108348;28;20208;-83
2023/06/13 05:26:58;;;;;;;12.65;4.70;;;18.20;77.80;;;;;;5098515;28;20257;-82
2023/06/13 05:29:25;;;;;;;13.93;4.50;;;18.30;77.10;;;;;;5107143;28;20221;-82
2023/06/13 05:31:51;;;;;;;9.15;4.30;;;18.30;76.50;;;;;;5098738;28;20403;-82
2023/06/13 05:34:17;;;;;;;10.27;4.43;;;18.40;76.20;;;;;;5106089;28;20268;-81
2023/06/13 05:36:43;;;;;;;11.68;4.43;;;18.40;75.70;;;;;;5113962;27;20189;-82
2023/06/13 05:39:09;;;;;;;9.07;4.13;;;18.50;75.50;;;;;;5109474;28;20215;-82
2023/06/13 05:41:36;;;;;;;11.27;4.63;;;18.50;75.20;;;;;;5096957;28;20268;-82
2023/06/13 05:44:02;;;;;;;8.18;4.35;;;18.50;74.80;;;;;;5079129;28;20578;-83
2023/06/13 05:46:28;;;;;;;9.60;4.65;;;18.60;74.60;;;;;;5095733;28;20210;-82
2023/06/13 05:48:53;;;;;;;6.43;4.18;;;18.70;74.70;;;;;;5095847;28;20217;-82
2023/06/13 05:51:19;;;;;;;12.23;4.82;;;18.70;74.60;;;;;;5093314;28;20235;-83
2023/06/13 05:53:46;;;;;;;7.25;4.30;;;18.80;74.60;;;;;;5086589;28;20181;-83
2023/06/13 05:56:11;;;;;;;6.22;3.90;;;18.80;74.10;;;;;;5086259;27;20262;-83
2023/06/13 05:58:37;;;;;;;13.15;4.35;;;18.90;73.80;;;;;;5095511;28;20336;-83
2023/06/13 06:01:03;;;;;;;10.82;4.25;;;18.90;73.40;;;;;;5089082;28;20326;-83
2023/06/13 06:03:31;;;;;;;8.50;3.97;;;18.90;72.60;;;;;;5047883;28;20246;-82
2023/06/13 06:05:57;;;;;;;13.68;4.10;;;19.00;71.90;;;;;;5097921;28;20189;-82
2023/06/13 06:08:23;;;;;;;9.77;4.15;;;19.00;71.20;;;;;;5080163;28;20200;-82
2023/06/13 06:10:49;;;;;;;6.32;3.83;;;19.10;70.90;;;;;;5092995;28;20213;-83
2023/06/13 06:13:15;;;;;;;8.10;4.10;;;19.20;70.70;;;;;;5101561;28;20357;-83
2023/06/13 06:15:41;;;;;;;9.07;4.22;;;19.20;70.50;;;;;;5074224;28;20483;-82
2023/06/13 06:18:06;;;;;;;17.65;4.63;;;19.30;70.20;;;;;;5079999;28;20255;-82
2023/06/13 06:20:32;;;;;;;7.35;4.38;;;19.30;69.90;;;;;;5078535;28;20190;-83
2023/06/13 06:22:58;;;;;;;7.80;3.65;;;19.40;69.90;;;;;;5109270;28;20223;-83
2023/06/13 06:25:24;;;;;;;6.28;4.05;;;19.40;69.90;;;;;;5110815;28;20180;-84
2023/06/13 06:27:50;;;;;;;8.98;3.95;;;19.50;69.80;;;;;;5114599;27;20583;-83
2023/06/13 06:30:16;;;;;;;8.15;3.75;;;19.60;69.60;;;;;;5124146;27;20214;-84
2023/06/13 06:32:42;;;;;;;6.78;3.65;;;19.70;69.20;;;;;;5093535;28;20248;-83
2023/06/13 06:35:12;;;;;;;7.45;3.42;;;19.70;68.40;;;;;;5109415;28;20185;-84
2023/06/13 06:37:37;;;;;;;6.80;3.50;;;19.80;67.60;;;;;;5100164;28;20250;-83
2023/06/13 06:40:04;;;;;;;8.10;3.17;;;19.90;66.70;;;;;;5093699;28;20634;-83
2023/06/13 06:42:30;;;;;;;8.18;2.90;;;19.90;66.10;;;;;;5095069;28;20407;-83
2023/06/13 06:45:09;;;;;;;9.38;3.30;;;20.00;65.50;;;;;;5080249;28;20205;-82
2023/06/13 06:47:36;;;;;;;8.27;3.67;;;20.10;65.00;;;;;;5107403;28;20305;-83
2023/06/13 06:50:01;;;;;;;9.38;3.60;;;20.20;64.40;;;;;;5105962;28;20210;-83
2023/06/13 06:52:28;;;;;;;11.88;3.13;;;20.30;64.00;;;;;;5103116;28;20185;-81
2023/06/13 06:54:55;;;;;;;6.78;3.08;;;20.40;63.00;;;;;;5100447;28;20613;-87
2023/06/13 06:57:23;;;;;;;8.77;3.10;;;20.40;61.50;;;;;;5102025;28;20261;-83
2023/06/13 06:59:49;;;;;;;6.13;2.78;;;20.50;60.90;;;;;;5097508;28;20661;-83
2023/06/13 07:02:16;;;;;;;9.75;3.05;;;20.60;60.50;;;;;;5114142;28;20186;-83
2023/06/13 07:04:41;;;;;;;6.82;3.55;;;20.60;60.20;;;;;;5092472;28;20216;-83
2023/06/13 07:07:07;;;;;;;9.32;3.28;;;20.70;59.70;;;;;;5101753;28;20193;-83
2023/06/13 07:09:33;;;;;;;5.13;2.80;;;20.80;58.90;;;;;;5099801;28;20656;-85
2023/06/13 07:11:59;;;;;;;11.15;3.28;;;20.80;58.20;;;;;;5095600;28;20705;-83
2023/06/13 07:14:25;;;;;;;5.60;3.03;;;20.90;58.10;;;;;;5093785;28;20220;-83
2023/06/13 07:16:52;;;;;;;9.18;3.10;;;21.00;58.20;;;;;;5101051;28;20178;-82
2023/06/13 07:19:18;;;;;;;7.90;3.55;;;21.10;58.20;;;;;;5111006;28;20189;-83
2023/06/13 07:21:43;;;;;;;7.03;3.30;;;21.20;58.10;;;;;;5110659;28;20188;-83
2023/06/13 07:24:09;;;;;;;6.55;3.20;;;21.20;57.90;;;;;;5087574;28;20280;-82
2023/06/13 07:26:35;;;;;;;8.93;3.20;;;21.30;58.00;;;;;;5061943;28;20177;-83
2023/06/13 07:29:01;;;;;;;4.68;3.20;;;21.40;58.20;;;;;;5078700;28;20239;-84
2023/06/13 07:31:27;;;;;;;8.75;3.55;;;21.50;58.00;;;;;;5091231;28;20189;-84
2023/06/13 07:33:53;;;;;;;4.55;3.50;;;21.60;58.00;;;;;;5110792;28;20225;-83
2023/06/13 07:36:19;;;;;;;6.72;3.30;;;21.70;57.90;;;;;;5105099;28;20633;-84
2023/06/13 07:38:45;;;;;;;7.93;4.60;;;21.80;58.00;;;;;;5111213;28;20667;-83
2023/06/13 07:41:11;;;;;;;5.03;3.70;;;21.90;58.10;;;;;;5112628;28;20246;-83
2023/06/13 07:43:37;;;;;;;6.03;3.58;;;22.00;58.10;;;;;;5106784;27;20277;-83
2023/06/13 07:46:02;;;;;;;7.28;3.40;;;22.10;58.20;;;;;;5089068;28;20684;-83
2023/06/13 07:48:28;;;;;;;6.03;3.63;;;22.20;58.20;;;;;;5098083;28;20189;-83
2023/06/13 07:50:54;;;;;;;6.63;3.55;;;22.40;58.20;;;;;;5093035;28;20190;-84
2023/06/13 07:53:20;;;;;;;7.95;3.60;;;22.50;57.90;;;;;;5076188;28;20272;-84
2023/06/13 07:55:47;;;;;;;6.72;3.55;;;22.60;57.50;;;;;;5094199;28;20198;-86
2023/06/13 07:58:16;;;;;;;6.40;3.58;;;22.80;57.40;;;;;;5096315;28;20259;-84
2023/06/13 08:00:42;;;;;;;9.35;3.53;;;22.80;57.00;;;;;;5092149;28;20178;-83
2023/06/13 08:03:07;;;;;;;5.53;3.10;;;22.90;56.70;;;;;;5093172;28;20184;-83
2023/06/13 08:05:33;;;;;;;6.00;3.50;;;23.00;56.60;;;;;;5091650;28;20184;-83
2023/06/13 08:07:59;;;;;;;7.95;3.40;;;23.10;56.80;;;;;;5074057;27;20169;-84
2023/06/13 08:10:28;;;;;;;5.40;3.90;;;23.20;56.90;;;;;;5102596;28;20217;-85
2023/06/13 08:12:54;;;;;;;6.32;3.35;;;23.20;56.60;;;;;;5090829;28;20193;-83
2023/06/13 08:15:20;;;;;;;5.72;3.60;;;23.40;56.00;;;;;;5093119;27;20193;-81
2023/06/13 08:17:46;;;;;;;8.57;3.65;;;23.40;55.50;;;;;;5101516;28;20650;-84
2023/06/13 08:20:12;;;;;;;9.10;3.55;;;23.50;55.60;;;;;;5091254;28;20224;-84
2023/06/13 08:22:39;;;;;;;9.48;4.03;;;23.50;55.50;;;;;;5101321;28;20709;-83
2023/06/13 08:25:10;;;;;;;9.15;3.50;;;23.70;55.20;;;;;;5107939;28;20653;-83
2023/06/13 08:27:36;;;;;;;7.35;4.43;;;23.80;54.90;;;;;;5090847;28;20166;-83
2023/06/13 08:30:06;;;;;;;11.30;3.92;;;23.90;54.20;;;;;;5092108;28;20244;-83
2023/06/13 08:32:33;;;;;;;6.43;3.40;;;24.00;53.70;;;;;;5105385;27;20609;-83
2023/06/13 08:35:01;;;;;;;5.40;3.50;;;24.10;53.70;;;;;;5094944;28;20173;-83
2023/06/13 08:37:27;;;;;;;7.57;3.55;;;24.20;53.00;;;;;;5107669;28;20266;-84
2023/06/13 08:39:53;;;;;;;6.20;3.70;;;24.20;52.50;;;;;;5085170;28;20181;-83
2023/06/13 08:42:20;;;;;;;7.90;3.47;;;24.30;52.40;;;;;;5093678;27;20209;-89
2023/06/13 08:44:47;;;;;;;8.30;3.83;;;24.30;52.10;;;;;;5092546;28;20184;-83
2023/06/13 08:47:13;;;;;;;4.60;3.70;;;24.30;51.70;;;;;;5101252;28;20181;-83
2023/06/13 08:49:39;;;;;;;7.68;3.92;;;24.50;51.20;;;;;;5100008;28;20217;-83
2023/06/13 08:52:11;;;;;;;8.75;4.20;;;24.50;50.70;;;;;;5074700;28;20246;-83
2023/06/13 08:54:38;;;;;;;10.55;3.97;;;24.60;50.30;;;;;;5093671;28;20189;-83
2023/06/13 08:57:09;;;;;;;11.77;4.82;;;24.60;50.30;;;;;;5090911;28;20239;-81
2023/06/13 08:59:37;;;;;;;6.80;3.80;;;24.70;50.30;;;;;;5090037;28;20185;-83
2023/06/13 09:02:04;;;;;;;5.35;3.70;;;24.80;49.90;;;;;;5110441;28;20185;-82
2023/06/13 09:04:35;;;;;;;6.88;3.53;;;24.80;49.50;;;;;;5103783;28;20182;-82
2023/06/13 09:07:01;;;;;;;7.43;4.00;;;24.90;49.30;;;;;;5105236;28;20278;-82
2023/06/13 09:09:30;;;;;;;10.68;4.40;;;24.90;49.30;;;;;;5106828;28;20679;-81
2023/06/13 09:11:57;;;;;;;9.23;4.15;;;24.90;49.30;;;;;;5106617;28;20625;-82
2023/06/13 09:14:22;;;;;;;5.75;4.00;;;25.10;48.70;;;;;;5090664;28;20204;-82
2023/06/13 09:16:54;;;;;;;7.78;3.83;;;25.20;47.80;;;;;;5110149;28;20629;-83
2023/06/13 09:19:20;;;;;;;9.65;4.10;;;25.40;46.90;;;;;;5110654;28;20205;-84
2023/06/13 09:21:46;;;;;;;7.43;3.55;;;25.40;46.50;;;;;;5093303;28;20211;-83
2023/06/13 09:24:12;;;;;;;7.25;3.90;;;25.40;46.30;;;;;;5111176;28;20203;-82
2023/06/13 09:26:41;;;;;;;5.72;3.75;;;25.40;46.50;;;;;;5109380;28;20264;-81
2023/06/13 09:29:07;;;;;;;7.00;4.07;;;25.50;46.90;;;;;;5093236;28;20660;-83
2023/06/13 09:31:37;;;;;;;7.68;4.03;;;25.60;47.10;;;;;;5090085;28;20170;-83
2023/06/13 09:34:06;;;;;;;6.30;3.50;;;25.70;46.00;;;;;;5108925;28;20220;-82
2023/06/13 09:36:35;;;;;;;6.25;3.83;;;25.80;45.90;;;;;;5106550;28;20230;-83
2023/06/13 09:39:03;;;;;;;10.02;3.80;;;25.80;46.00;;;;;;5108711;28;20169;-83
2023/06/13 09:41:31;;;;;;;7.07;3.50;;;25.90;46.00;;;;;;5098302;28;20646;-83
2023/06/13 09:44:01;;;;;;;6.78;3.60;;;26.10;46.00;;;;;;5099794;28;20186;-83
2023/06/13 09:46:28;;;;;;;6.68;3.40;;;26.20;45.60;;;;;;5091158;28;20833;-83
2023/06/13 09:48:54;;;;;;;6.55;3.58;;;26.30;45.30;;;;;;5105928;28;20264;-82
2023/06/13 09:51:25;;;;;;;7.90;3.65;;;26.40;45.00;;;;;;5090584;28;20170;-83
2023/06/13 09:53:51;;;;;;;7.03;3.92;;;26.40;44.90;;;;;;5095051;28;20670;-83
2023/06/13 09:56:17;;;;;;;8.65;3.45;;;26.40;45.10;;;;;;5105531;28;20294;-84
2023/06/13 09:58:42;;;;;;;5.75;3.42;;;26.40;44.50;;;;;;5088302;28;20213;-83
2023/06/13 10:01:17;;;;;;;11.45;3.60;;;26.40;43.80;;;;;;5105783;28;20543;-83
2023/06/13 10:03:43;;;;;;;7.32;3.60;;;26.40;44.10;;;;;;5100880;28;20188;-82
2023/06/13 10:06:10;;;;;;;5.85;3.30;;;26.50;44.60;;;;;;5106400;28;20672;-82
2023/06/13 10:08:36;;;;;;;6.50;3.47;;;26.60;45.10;;;;;;5078143;28;20641;-83
2023/06/13 10:11:13;;;;;;;6.40;3.22;;;26.60;44.90;;;;;;5110895;27;20180;-83
2023/06/13 10:14:10;;;;;;;5.38;3.28;;;26.60;44.10;;;;;;5102302;28;20189;-82
2023/06/13 10:16:48;;;;;;;8.32;3.53;;;26.70;44.40;;;;;;5105051;27;20272;-83
2023/06/13 10:19:22;;;;;;;4.53;2.78;;;26.80;44.60;;;;;;5092277;28;20259;-85
2023/06/13 10:21:48;;;;;;;5.18;3.20;;;26.80;44.50;;;;;;5100345;27;20181;-83
2023/06/13 10:24:19;;;;;;;11.35;3.55;;;26.90;45.40;;;;;;5104669;28;20181;-83
2023/06/13 10:26:46;;;;;;;4.10;3.20;;;26.90;44.90;;;;;;5113201;28;20173;-83
2023/06/13 10:29:39;;;;;;;7.07;3.20;;;26.90;44.00;;;;;;5106001;28;20217;-84
2023/06/13 10:32:39;;;;;;;10.57;3.35;;;26.90;44.00;;;;;;5089213;28;20684;-83
2023/06/13 10:35:08;;;;;;;7.47;3.10;;;26.90;43.80;;;;;;5107401;28;20178;-83
2023/06/13 10:37:57;;;;;;;5.32;3.00;;;26.90;43.60;;;;;;5101267;28;20189;-84
2023/06/13 10:40:34;;;;;;;7.93;3.15;;;27.00;43.40;;;;;;5111708;28;20201;-83
2023/06/13 10:43:17;;;;;;;9.32;3.30;;;27.00;44.00;;;;;;5109982;28;20173;-84
2023/06/13 10:45:45;;;;;;;7.25;3.30;;;27.20;45.30;;;;;;5102326;28;20180;-83
2023/06/13 10:48:12;;;;;;;7.63;3.53;;;27.20;44.50;;;;;;5113681;28;20169;-83
2023/06/13 10:50:43;;;;;;;7.45;3.17;;;27.30;44.10;;;;;;5093223;28;20209;-84
2023/06/13 10:53:39;;;;;;;5.28;3.15;;;27.30;44.10;;;;;;5109823;28;20185;-84
2023/06/13 10:56:08;;;;;;;10.40;3.80;;;27.40;44.40;;;;;;5093428;28;20199;-83
2023/06/13 10:58:35;;;;;;;5.38;3.50;;;27.40;44.70;;;;;;5096451;28;20218;-84
2023/06/13 11:01:26;;;;;;;5.50;3.15;;;27.50;44.20;;;;;;5113079;28;20208;-83
2023/06/13 11:03:52;;;;;;;12.93;4.07;;;27.40;44.30;;;;;;5088795;28;20308;-83
2023/06/13 11:06:18;;;;;;;4.88;3.13;;;27.40;44.90;;;;;;5106702;28;20268;-83
2023/06/13 11:08:44;;;;;;;7.75;3.10;;;27.40;45.80;;;;;;5099832;28;20189;-84
2023/06/13 11:11:10;;;;;;;5.93;2.85;;;27.40;46.20;;;;;;5103056;27;20491;-84
2023/06/13 11:13:36;;;;;;;11.60;3.13;;;27.30;46.80;;;;;;5092548;28;20182;-82
2023/06/13 11:16:34;;;;;;;6.50;3.22;;;27.40;47.60;;;;;;5076014;28;20173;-82
2023/06/13 11:19:21;;;;;;;8.30;3.60;;;27.40;47.80;;;;;;5100705;28;20624;-83
2023/06/13 11:22:06;;;;;;;9.30;4.72;;;27.50;47.90;;;;;;5108634;28;20181;-83
2023/06/13 11:24:34;;;;;;;7.13;3.05;;;27.50;47.30;;;;;;5097187;28;20620;-83
2023/06/13 11:27:03;;;;;;;6.78;2.70;;;27.50;47.20;;;;;;5110668;28;20185;-83
2023/06/13 11:29:30;;;;;;;6.80;3.22;;;27.50;47.60;;;;;;5103297;28;20269;-83
2023/06/13 11:31:56;;;;;;;10.93;3.00;;;27.50;47.80;;;;;;5091638;28;20268;-84
2023/06/13 11:34:30;;;;;;;6.80;3.08;;;27.50;47.80;;;;;;5110952;28;20218;-84
2023/06/13 11:37:02;;;;;;;5.93;2.63;;;27.40;48.00;;;;;;5103370;28;20173;-84
2023/06/13 11:39:47;;;;;;;7.82;2.50;;;27.40;48.80;;;;;;5105767;27;20233;-83
2023/06/13 11:42:13;;;;;;;4.20;2.55;;;27.40;49.30;;;;;;5093345;27;20180;-84
2023/06/13 11:44:39;;;;;;;15.02;3.38;;;27.40;49.70;;;;;;5121780;27;20264;-84
2023/06/13 11:47:05;;;;;;;7.47;3.22;;;27.50;50.00;;;;;;5094575;28;20625;-83
2023/06/13 11:49:30;;;;;;;7.85;2.90;;;27.60;50.10;;;;;;5091607;28;20249;-83
2023/06/13 11:51:56;;;;;;;5.30;2.70;;;27.60;50.10;;;;;;5070824;28;20193;-84
2023/06/13 11:54:29;;;;;;;3.92;2.50;;;27.60;50.30;;;;;;5094401;27;20181;-83
2023/06/13 11:56:55;;;;;;;5.25;2.63;;;27.60;50.00;;;;;;5093623;28;20185;-84
2023/06/13 11:59:28;;;;;;;3.88;2.67;;;27.60;49.80;;;;;;5092594;28;20192;-83
2023/06/13 12:01:54;;;;;;;8.52;2.95;;;27.60;49.60;;;;;;5091619;28;20181;-83
2023/06/13 12:04:22;;;;;;;6.47;2.83;;;27.70;49.50;;;;;;5077971;28;20192;-84
2023/06/13 12:06:49;;;;;;;5.10;2.75;;;27.70;49.50;;;;;;5096754;28;20181;-83
2023/06/13 12:09:16;;;;;;;6.93;2.88;;;27.70;49.20;;;;;;5091067;28;20258;-83
2023/06/13 12:11:43;;;;;;;8.70;2.85;;;27.60;49.20;;;;;;5098263;27;20209;-83
2023/06/13 12:14:09;;;;;;;11.02;2.90;;;27.70;49.00;;;;;;5093834;28;20246;-85
2023/06/13 12:16:37;;;;;;;5.32;2.90;;;27.60;49.00;;;;;;5091706;28;20630;-85
2023/06/13 12:19:04;;;;;;;5.20;2.88;;;27.60;48.90;;;;;;5110281;28;20185;-83
2023/06/13 12:21:32;;;;;;;7.28;2.65;;;27.70;48.60;;;;;;5100568;28;20185;-84
2023/06/13 12:24:03;;;;;;;7.07;2.60;;;27.70;48.60;;;;;;5094055;28;20251;-86
2023/06/13 12:26:32;;;;;;;4.45;3.25;;;27.70;48.50;;;;;;5091297;28;20260;-84
2023/06/13 12:29:01;;;;;;;11.95;3.42;;;27.70;48.60;;;;;;5091319;28;20342;-84
2023/06/13 12:31:37;;;;;;;5.03;2.47;;;27.80;48.40;;;;;;5108055;28;20658;-84
2023/06/13 12:34:19;;;;;;;3.58;2.50;;;27.80;48.30;;;;;;5100714;27;20698;-84
2023/06/13 12:36:46;;;;;;;7.35;2.65;;;27.80;48.30;;;;;;5112130;28;20173;-85
2023/06/13 12:39:17;;;;;;;5.60;2.60;;;27.70;48.20;;;;;;5095723;28;20201;-84
2023/06/13 12:41:46;;;;;;;4.18;2.88;;;27.70;48.30;;;;;;5108977;27;20185;-83
2023/06/13 12:44:12;;;;;;;7.75;2.90;;;27.70;48.20;;;;;;5108611;28;20179;-83
2023/06/13 12:46:39;;;;;;;4.20;2.95;;;27.70;48.20;;;;;;5107788;28;20184;-83
2023/06/13 12:49:09;;;;;;;8.30;3.53;;;27.70;48.10;;;;;;5113714;27;20205;-84
2023/06/13 12:51:41;;;;;;;17.70;2.83;;;27.70;48.20;;;;;;5096762;28;20525;-83